createdAt,value
2018-09-23T00:02:37.280Z,2.87
2018-09-23T00:07:20.420Z,3.33
2018-09-23T00:12:03.349Z,3.50
2018-09-23T00:16:46.467Z,3.40
2018-09-23T00:21:29.371Z,3.40
2018-09-23T00:26:13.403Z,3.70
2018-09-23T00:30:56.326Z,3.63
2018-09-23T00:35:39.431Z,3.17
2018-09-23T00:40:22.446Z,3.63
2018-09-23T00:45:05.495Z,3.93
2018-09-23T00:49:48.627Z,3.87
2018-09-23T00:54:32.075Z,3.93
2018-09-23T00:59:15.209Z,3.17
2018-09-23T01:03:58.113Z,3.63
2018-09-23T01:08:41.101Z,3.50
2018-09-23T01:13:24.073Z,3.50
2018-09-23T01:18:08.237Z,3.70
2018-09-23T01:22:51.402Z,3.40
2018-09-23T01:27:34.450Z,4.00
2018-09-23T01:32:17.323Z,4.27
2018-09-23T01:37:04.331Z,3.70
2018-09-23T01:41:47.199Z,4.17
2018-09-23T01:46:31.078Z,3.70
2018-09-23T01:51:13.977Z,3.70
2018-09-23T01:56:00.194Z,4.93
2018-09-23T02:00:43.062Z,4.37
2018-09-23T02:05:27.012Z,4.17
2018-09-23T02:10:09.881Z,4.63
2018-09-23T02:14:52.803Z,5.17
2018-09-23T02:19:35.971Z,4.90
2018-09-23T02:24:18.859Z,5.40
2018-09-23T02:29:02.982Z,4.80
2018-09-23T02:33:46.250Z,4.83
2018-09-23T02:38:30.230Z,4.63
2018-09-23T02:43:13.148Z,4.37
2018-09-23T02:47:58.103Z,4.63
2018-09-23T02:52:41.000Z,4.90
2018-09-23T02:57:25.082Z,5.00
2018-09-23T03:02:07.985Z,4.50
2018-09-23T03:06:51.935Z,5.07
2018-09-23T03:11:34.863Z,4.80
2018-09-23T03:16:18.967Z,5.00
2018-09-23T03:21:01.901Z,5.33
2018-09-23T03:25:47.147Z,5.23
2018-09-23T03:30:30.124Z,5.57
2018-09-23T03:35:14.134Z,6.07
2018-09-23T03:39:57.070Z,5.70
2018-09-23T03:44:39.993Z,5.63
2018-09-23T03:49:22.980Z,7.13
2018-09-23T03:54:05.908Z,6.53
2018-09-23T03:58:49.052Z,6.13
2018-09-23T04:05:02.636Z,7.73
2018-09-23T04:09:45.578Z,6.47
2018-09-23T04:14:28.461Z,6.63
2018-09-23T04:19:11.393Z,5.67
2018-09-23T04:23:54.275Z,6.50
2018-09-23T04:28:41.807Z,6.43
2018-09-23T04:33:24.708Z,5.80
2018-09-23T04:38:07.800Z,6.23
2018-09-23T04:42:50.813Z,6.67
2018-09-23T04:47:38.676Z,6.63
2018-09-23T04:52:22.247Z,6.27
2018-09-23T04:57:05.257Z,6.93
2018-09-23T05:01:48.132Z,7.10
2018-09-23T05:06:34.584Z,8.67
2018-09-23T05:11:17.616Z,7.10
2018-09-23T05:16:01.587Z,6.07
2018-09-23T05:20:44.867Z,7.17
2018-09-23T05:25:30.140Z,7.20
2018-09-23T05:30:13.640Z,7.70
2018-09-23T05:35:01.640Z,7.60
2018-09-23T05:39:44.551Z,7.47
2018-09-23T05:44:34.385Z,7.73
2018-09-23T05:49:32.279Z,7.43
2018-09-23T05:54:15.166Z,7.40
2018-09-23T05:58:58.255Z,7.67
2018-09-23T06:03:41.139Z,6.67
2018-09-23T06:08:24.027Z,7.40
2018-09-23T06:13:06.938Z,7.37
2018-09-23T06:17:50.818Z,7.07
2018-09-23T06:22:33.691Z,6.57
2018-09-23T06:27:16.640Z,6.63
2018-09-23T06:32:00.385Z,7.20
2018-09-23T06:36:45.483Z,7.30
2018-09-23T06:41:28.411Z,6.67
2018-09-23T06:46:12.658Z,6.67
2018-09-23T06:50:55.630Z,7.90
2018-09-23T06:55:42.364Z,7.90
2018-09-23T07:00:25.378Z,9.50
2018-09-23T07:05:09.110Z,9.00
2018-09-23T07:09:52.030Z,9.17
2018-09-23T07:14:35.168Z,8.60
2018-09-23T07:19:18.086Z,8.53
2018-09-23T07:24:01.169Z,7.77
2018-09-23T07:28:44.012Z,7.50
2018-09-23T07:33:26.978Z,9.80
2018-09-23T07:38:11.271Z,11.03
2018-09-23T07:42:54.288Z,7.17
2018-09-23T07:47:37.362Z,7.47
2018-09-23T07:52:20.251Z,7.13
2018-09-23T07:57:04.159Z,7.23
2018-09-23T08:01:47.062Z,6.97
2018-09-23T08:06:31.500Z,5.90
2018-09-23T08:11:14.681Z,13.20
2018-09-23T08:15:57.798Z,7.83
2018-09-23T08:20:40.777Z,10.77
2018-09-23T08:25:24.824Z,7.67
2018-09-23T08:30:07.787Z,6.00
2018-09-23T08:34:50.851Z,6.42
2018-09-23T08:39:33.726Z,6.95
2018-09-23T08:44:16.815Z,5.85
2018-09-23T08:48:59.762Z,5.80
2018-09-23T08:53:42.654Z,5.90
2018-09-23T08:58:25.753Z,6.42
2018-09-23T09:03:08.739Z,6.35
2018-09-23T09:07:52.771Z,7.55
2018-09-23T09:12:35.661Z,6.92
2018-09-23T09:17:24.580Z,6.10
2018-09-23T09:22:07.430Z,6.35
2018-09-23T09:26:51.044Z,7.03
2018-09-23T09:31:35.271Z,6.83
2018-09-23T09:36:25.004Z,6.75
2018-09-23T09:41:08.387Z,7.33
2018-09-23T09:45:52.500Z,6.78
2018-09-23T09:50:35.382Z,7.30
2018-09-23T09:55:19.621Z,6.85
2018-09-23T10:00:02.531Z,7.53
2018-09-23T10:04:45.583Z,6.90
2018-09-23T10:09:29.565Z,6.45
2018-09-23T10:14:12.666Z,5.85
2018-09-23T10:19:01.201Z,6.35
2018-09-23T10:23:56.435Z,6.95
2018-09-23T10:28:39.249Z,5.90
2018-09-23T10:33:22.295Z,6.40
2018-09-23T10:38:06.235Z,5.78
2018-09-23T10:42:49.099Z,5.47
2018-09-23T10:47:32.626Z,5.90
2018-09-23T10:52:15.549Z,5.70
2018-09-23T10:56:58.562Z,5.33
2018-09-23T11:01:41.482Z,6.40
2018-09-23T11:06:26.629Z,5.65
2018-09-23T11:11:09.511Z,6.67
2018-09-23T11:15:52.609Z,6.70
2018-09-23T11:20:35.542Z,6.83
2018-09-23T11:25:20.075Z,7.83
2018-09-23T11:31:32.565Z,6.70
2018-09-23T11:36:15.562Z,6.55
2018-09-23T11:40:58.452Z,6.60
2018-09-23T11:45:41.562Z,7.47
2018-09-23T11:50:26.885Z,6.90
2018-09-23T11:55:12.376Z,6.70
2018-09-23T11:59:55.338Z,6.62
2018-09-23T12:04:38.520Z,6.70
2018-09-23T12:09:21.418Z,7.90
2018-09-23T12:14:04.623Z,7.37
2018-09-23T12:18:47.651Z,6.60
2018-09-23T12:23:30.579Z,5.65
2018-09-23T12:37:12.317Z,5.67
2018-09-23T12:41:55.181Z,6.33
2018-09-23T12:46:39.075Z,6.07
2018-09-23T12:51:21.964Z,5.87
2018-09-23T12:56:05.222Z,5.87
2018-09-23T13:00:48.082Z,6.43
2018-09-23T13:05:33.186Z,6.20
2018-09-23T13:10:16.054Z,6.47
2018-09-23T13:14:59.968Z,6.60
2018-09-23T13:19:42.843Z,6.50
2018-09-23T13:24:29.070Z,6.50
2018-09-23T13:29:11.967Z,7.33
2018-09-23T13:33:57.846Z,6.13
2018-09-23T13:38:40.778Z,6.80
2018-09-23T13:43:24.011Z,6.50
2018-09-23T13:48:07.180Z,6.93
2018-09-23T13:52:50.110Z,7.20
2018-09-23T13:57:36.618Z,6.17
2018-09-23T14:02:19.584Z,8.23
2018-09-23T14:07:02.846Z,7.17
2018-09-23T14:11:45.766Z,6.37
2018-09-23T14:16:28.702Z,6.70
2018-09-23T14:21:11.656Z,6.70
2018-09-23T14:25:55.087Z,7.70
2018-09-23T14:30:38.004Z,6.40
2018-09-23T14:35:22.939Z,6.77
2018-09-23T14:40:05.904Z,6.53
2018-09-23T14:44:48.807Z,6.23
2018-09-23T14:49:31.660Z,7.77
2018-09-23T14:54:14.729Z,7.47
2018-09-23T14:58:57.797Z,6.70
2018-09-23T15:03:40.871Z,6.07
2018-09-23T15:08:23.768Z,6.03
2018-09-23T15:13:06.966Z,5.73
2018-09-23T15:17:49.806Z,5.93
2018-09-23T15:22:32.677Z,5.87
2018-09-23T15:27:15.818Z,5.53
2018-09-23T15:31:59.617Z,4.87
2018-09-23T15:36:42.565Z,5.27
2018-09-23T15:41:30.636Z,6.13
2018-09-23T15:46:13.742Z,5.17
2018-09-23T15:50:56.641Z,5.13
2018-09-23T15:55:40.750Z,5.27
2018-09-23T16:00:23.751Z,4.90
2018-09-23T16:05:08.923Z,5.13
2018-09-23T16:09:51.865Z,5.97
2018-09-23T16:14:35.798Z,4.63
2018-09-23T16:19:18.953Z,4.87
2018-09-23T16:24:02.140Z,4.70
2018-09-23T16:28:45.046Z,4.60
2018-09-23T16:33:28.993Z,4.77
2018-09-23T16:38:11.888Z,5.50
2018-09-23T16:42:54.972Z,5.37
2018-09-23T16:47:37.828Z,5.37
2018-09-23T16:52:20.757Z,5.03
2018-09-23T16:57:03.888Z,5.33
2018-09-23T17:01:47.843Z,5.07
2018-09-23T17:06:31.876Z,5.57
2018-09-23T17:11:16.507Z,5.33
2018-09-23T17:15:59.595Z,5.20
2018-09-23T17:20:42.531Z,6.13
2018-09-23T17:25:27.365Z,5.53
2018-09-23T17:30:15.078Z,5.30
2018-09-23T17:34:59.062Z,5.77
2018-09-23T17:39:42.028Z,5.40
2018-09-23T17:44:25.355Z,5.30
2018-09-23T17:49:08.415Z,4.83
2018-09-23T17:53:56.263Z,5.63
2018-09-23T17:58:39.288Z,5.03
2018-09-23T18:03:27.257Z,4.27
2018-09-23T18:08:10.148Z,5.13
2018-09-23T18:12:54.107Z,4.77
2018-09-23T18:17:37.419Z,4.83
2018-09-23T18:27:13.955Z,5.50
2018-09-23T18:31:57.406Z,5.23
2018-09-23T18:36:40.539Z,5.17
2018-09-23T18:41:23.494Z,4.83
2018-09-23T18:46:06.582Z,4.80
2018-09-23T18:50:49.442Z,4.73
2018-09-23T18:55:40.162Z,4.90
2018-09-23T19:00:23.056Z,4.67
2018-09-23T19:05:06.044Z,5.20
2018-09-23T19:09:48.961Z,4.73
2018-09-23T19:14:32.078Z,4.87
2018-09-23T19:19:14.947Z,8.57
2018-09-23T19:24:01.447Z,9.33
2018-09-23T19:28:44.315Z,5.50
2018-09-23T19:33:27.429Z,6.10
2018-09-23T19:38:10.277Z,5.67
2018-09-23T19:42:53.171Z,4.27
2018-09-23T19:47:36.138Z,5.17
2018-09-23T19:52:19.089Z,5.03
2018-09-23T19:57:02.033Z,5.03
2018-09-23T20:01:44.955Z,5.10
2018-09-23T20:06:28.968Z,5.10
2018-09-23T20:11:11.785Z,5.50
2018-09-23T20:15:54.867Z,6.20
2018-09-23T20:20:37.769Z,5.70
2018-09-23T20:25:22.759Z,5.57
2018-09-23T20:30:06.362Z,6.07
2018-09-23T20:34:49.567Z,5.70
2018-09-23T20:39:32.482Z,6.03
2018-09-23T20:44:16.551Z,5.53
2018-09-23T20:48:59.430Z,6.00
2018-09-23T20:53:42.598Z,5.83
2018-09-23T20:58:25.525Z,5.53
2018-09-23T21:03:08.641Z,6.77
2018-09-23T21:07:51.552Z,6.30
2018-09-23T21:12:34.771Z,7.07
2018-09-23T21:17:17.668Z,6.13
2018-09-23T21:22:00.526Z,7.10
2018-09-23T21:26:43.508Z,6.60
2018-09-23T21:31:26.445Z,6.63
2018-09-23T21:36:10.565Z,6.20
2018-09-23T21:40:53.465Z,6.70
2018-09-23T21:45:37.346Z,6.93
2018-09-23T21:50:20.263Z,5.87
2018-09-23T21:55:05.157Z,6.30
2018-09-23T21:59:48.035Z,6.90
2018-09-23T22:04:30.938Z,7.33
2018-09-23T22:09:13.840Z,6.70
2018-09-23T22:13:58.006Z,6.47
2018-09-23T22:18:40.910Z,6.83
2018-09-23T22:23:24.006Z,7.13
2018-09-23T22:28:06.873Z,7.07
2018-09-23T22:32:49.763Z,6.80
2018-09-23T22:37:40.817Z,6.67
2018-09-23T22:42:24.706Z,6.47
2018-09-23T22:47:07.566Z,6.77
2018-09-23T22:51:50.439Z,6.93
2018-09-23T22:56:33.286Z,7.03
2018-09-23T23:01:16.162Z,6.67
2018-09-23T23:05:59.139Z,6.87
2018-09-23T23:10:42.072Z,6.90
2018-09-23T23:15:26.938Z,6.30
2018-09-23T23:20:09.794Z,6.93
2018-09-23T23:24:52.956Z,6.53
2018-09-23T23:29:35.815Z,7.00
2018-09-23T23:34:18.760Z,7.47
2018-09-23T23:39:01.611Z,7.47
2018-09-23T23:43:44.744Z,6.60
2018-09-23T23:48:27.562Z,6.93
2018-09-23T23:53:10.591Z,6.87
2018-09-23T23:57:53.490Z,7.93
